createdAt,value
2022-12-25T00:01:37.443Z,78.00
2022-12-25T00:06:41.949Z,77.90
2022-12-25T00:11:46.391Z,78.00
2022-12-25T00:16:51.352Z,78.10
2022-12-25T00:21:54.854Z,78.20
2022-12-25T00:26:58.576Z,78.30
2022-12-25T00:32:03.290Z,78.30
2022-12-25T00:37:06.948Z,78.10
2022-12-25T00:42:20.282Z,78.20
2022-12-25T00:47:24.989Z,78.30
2022-12-25T00:52:29.018Z,78.20
2022-12-25T00:57:32.594Z,78.80
2022-12-25T01:02:37.393Z,77.80
2022-12-25T01:07:40.971Z,77.80
2022-12-25T01:12:45.263Z,77.80
2022-12-25T01:17:50.069Z,77.90
2022-12-25T01:22:54.057Z,77.90
2022-12-25T01:27:57.492Z,78.10
2022-12-25T01:33:02.253Z,78.10
2022-12-25T01:38:05.679Z,78.00
2022-12-25T01:43:23.168Z,78.10
2022-12-25T01:48:31.685Z,78.10
2022-12-25T01:53:35.715Z,78.30
2022-12-25T01:58:39.388Z,78.40
2022-12-25T02:03:44.409Z,78.40
2022-12-25T02:08:47.790Z,78.20
2022-12-25T02:13:51.482Z,78.10
2022-12-25T02:19:01.998Z,78.10
2022-12-25T02:24:27.824Z,78.00
2022-12-25T02:29:40.348Z,78.10
2022-12-25T02:34:48.867Z,78.10
2022-12-25T02:40:00.021Z,78.00
2022-12-25T02:45:23.048Z,77.90
2022-12-25T02:50:44.725Z,77.80
2022-12-25T02:56:08.202Z,77.80
2022-12-25T03:01:34.272Z,77.70
2022-12-25T03:06:46.676Z,77.60
2022-12-25T03:11:57.887Z,77.60
2022-12-25T03:17:02.706Z,77.60
2022-12-25T03:22:25.499Z,77.40
2022-12-25T03:27:34.402Z,77.40
2022-12-25T03:32:46.142Z,77.30
2022-12-25T03:38:14.410Z,77.20
2022-12-25T03:43:48.879Z,77.20
2022-12-25T03:49:18.357Z,77.00
2022-12-25T03:54:44.312Z,77.10
2022-12-25T04:00:05.909Z,77.00
2022-12-25T04:05:27.959Z,77.00
2022-12-25T04:10:49.030Z,77.10
2022-12-25T04:16:10.025Z,77.20
2022-12-25T04:21:33.276Z,77.10
2022-12-25T04:26:54.255Z,77.10
2022-12-25T04:32:15.189Z,77.40
2022-12-25T04:37:20.040Z,77.50
2022-12-25T04:42:23.435Z,76.80
2022-12-25T04:47:27.878Z,76.80
2022-12-25T04:52:37.192Z,76.80
2022-12-25T04:57:41.139Z,77.10
2022-12-25T05:02:45.248Z,77.30
2022-12-25T05:07:50.545Z,77.00
2022-12-25T05:12:53.933Z,77.10
2022-12-25T05:17:57.280Z,77.00
2022-12-25T05:23:02.381Z,77.20
2022-12-25T05:28:06.065Z,77.50
2022-12-25T05:33:09.524Z,77.50
2022-12-25T05:38:14.502Z,77.50
2022-12-25T05:43:19.434Z,77.50
2022-12-25T05:48:23.155Z,77.60
2022-12-25T05:53:27.858Z,77.60
2022-12-25T05:58:31.791Z,77.60
2022-12-25T06:03:35.617Z,77.60
2022-12-25T06:08:40.772Z,77.50
2022-12-25T06:13:44.462Z,77.10
2022-12-25T06:18:52.912Z,77.40
2022-12-25T06:23:57.682Z,77.40
2022-12-25T06:29:02.123Z,77.20
2022-12-25T06:34:05.778Z,77.10
2022-12-25T06:39:11.197Z,77.00
2022-12-25T06:44:14.917Z,77.20
2022-12-25T06:49:19.514Z,77.10
2022-12-25T06:54:24.284Z,77.10
2022-12-25T06:59:27.989Z,76.90
2022-12-25T07:04:35.911Z,76.90
2022-12-25T07:09:42.433Z,76.90
2022-12-25T07:14:48.812Z,76.70
2022-12-25T07:19:52.536Z,76.50
2022-12-25T07:24:57.397Z,76.40
2022-12-25T07:30:00.799Z,76.80
2022-12-25T07:35:04.264Z,77.00
2022-12-25T07:40:10.882Z,76.80
2022-12-25T07:45:14.248Z,76.80
2022-12-25T07:50:20.145Z,76.60
2022-12-25T07:55:25.118Z,76.80
2022-12-25T08:00:32.685Z,76.90
2022-12-25T08:05:37.152Z,76.80
2022-12-25T08:10:46.420Z,77.00
2022-12-25T08:15:50.260Z,77.00
2022-12-25T08:20:53.926Z,77.10
2022-12-25T08:26:05.434Z,77.20
2022-12-25T08:31:11.933Z,77.20
2022-12-25T08:36:15.675Z,77.30
2022-12-25T08:41:20.572Z,77.30
2022-12-25T08:46:24.031Z,77.10
2022-12-25T08:51:27.823Z,77.00
2022-12-25T08:56:32.845Z,77.00
2022-12-25T09:01:36.553Z,77.10
2022-12-25T09:06:40.558Z,77.20
2022-12-25T09:11:45.331Z,77.30
2022-12-25T09:16:51.034Z,77.40
2022-12-25T09:21:54.457Z,77.30
2022-12-25T09:26:59.181Z,77.20
2022-12-25T09:32:02.552Z,77.10
2022-12-25T09:37:05.913Z,77.10
2022-12-25T09:42:16.130Z,77.00
2022-12-25T09:47:23.061Z,77.00
2022-12-25T09:52:31.506Z,77.10
2022-12-25T09:57:36.529Z,77.20
2022-12-25T10:03:03.218Z,77.10
2022-12-25T10:08:13.419Z,77.20
2022-12-25T10:13:32.476Z,77.20
2022-12-25T10:18:48.515Z,77.20
2022-12-25T10:23:59.704Z,77.20
2022-12-25T10:29:12.649Z,77.20
2022-12-25T10:34:17.126Z,77.30
2022-12-25T10:39:22.200Z,77.50
2022-12-25T10:44:27.024Z,77.60
2022-12-25T10:49:32.930Z,77.50
2022-12-25T10:54:37.212Z,77.40
2022-12-25T10:59:46.948Z,77.40
2022-12-25T11:04:51.224Z,77.40
2022-12-25T11:10:02.654Z,77.40
2022-12-25T11:15:38.855Z,77.20
2022-12-25T11:20:50.212Z,77.00
2022-12-25T11:25:57.947Z,77.00
2022-12-25T11:31:14.332Z,77.00
2022-12-25T11:36:22.681Z,76.90
2022-12-25T11:41:33.672Z,76.30
2022-12-25T11:46:43.461Z,75.80
2022-12-25T11:51:50.311Z,75.70
2022-12-25T11:56:53.913Z,75.70
2022-12-25T12:02:03.035Z,75.60
2022-12-25T12:07:15.380Z,75.20
2022-12-25T12:12:23.812Z,75.00
2022-12-25T12:17:28.675Z,75.00
2022-12-25T12:22:32.113Z,74.70
2022-12-25T12:27:38.746Z,74.70
2022-12-25T12:32:46.113Z,74.50
2022-12-25T12:37:54.563Z,74.50
2022-12-25T12:42:58.117Z,74.50
2022-12-25T12:48:03.219Z,74.40
2022-12-25T12:53:28.890Z,74.30
2022-12-25T12:58:34.164Z,74.20
2022-12-25T13:04:18.099Z,73.90
2022-12-25T13:09:33.388Z,73.80
2022-12-25T13:14:38.393Z,73.10
2022-12-25T13:19:44.270Z,73.00
2022-12-25T13:24:57.524Z,72.60
2022-12-25T13:30:00.983Z,71.70
2022-12-25T13:35:06.411Z,71.10
2022-12-25T13:40:21.864Z,70.90
2022-12-25T13:45:27.371Z,70.60
2022-12-25T13:50:34.418Z,70.30
2022-12-25T13:55:38.133Z,70.50
2022-12-25T14:00:48.195Z,70.60
2022-12-25T14:05:59.250Z,70.60
2022-12-25T14:11:05.748Z,70.70
2022-12-25T14:16:10.725Z,70.80
2022-12-25T14:21:23.461Z,70.70
2022-12-25T14:26:29.482Z,70.90
2022-12-25T14:31:33.808Z,70.80
2022-12-25T14:36:39.278Z,70.90
2022-12-25T14:41:42.677Z,70.70
2022-12-25T14:46:46.119Z,70.80
2022-12-25T14:51:51.483Z,70.90
2022-12-25T14:56:56.385Z,70.90
2022-12-25T15:02:01.160Z,71.00
2022-12-25T15:07:09.689Z,71.10
2022-12-25T15:12:13.895Z,71.10
2022-12-25T15:17:26.278Z,71.10
2022-12-25T15:22:54.083Z,71.20
2022-12-25T15:27:54.755Z,71.00
2022-12-25T15:32:58.200Z,70.90
2022-12-25T15:38:03.194Z,70.90
2022-12-25T15:43:14.366Z,70.90
2022-12-25T15:48:25.906Z,70.90
2022-12-25T15:53:30.674Z,71.00
2022-12-25T15:58:34.127Z,71.10
2022-12-25T16:03:37.505Z,71.20
2022-12-25T16:08:43.056Z,71.30
2022-12-25T16:13:46.472Z,71.40
2022-12-25T16:18:50.697Z,71.50
2022-12-25T16:23:55.416Z,71.60
2022-12-25T16:29:03.591Z,71.60
2022-12-25T16:34:10.542Z,71.50
2022-12-25T16:39:15.284Z,71.60
2022-12-25T16:44:18.726Z,71.60
2022-12-25T16:49:22.140Z,71.60
2022-12-25T16:54:26.988Z,71.50
2022-12-25T16:59:31.176Z,71.60
2022-12-25T17:04:34.555Z,71.60
2022-12-25T17:09:44.065Z,71.60
2022-12-25T17:14:49.329Z,71.70
2022-12-25T17:19:52.954Z,71.80
2022-12-25T17:24:57.776Z,71.70
2022-12-25T17:30:01.202Z,71.80
2022-12-25T17:35:04.959Z,71.80
2022-12-25T17:40:11.498Z,72.00
2022-12-25T17:45:15.009Z,71.90
2022-12-25T17:50:19.039Z,72.00
2022-12-25T17:55:23.838Z,72.00
2022-12-25T18:00:27.243Z,72.00
2022-12-25T18:05:30.654Z,72.20
2022-12-25T18:10:38.696Z,72.30
2022-12-25T18:15:42.649Z,72.30
2022-12-25T18:20:46.023Z,72.30
2022-12-25T18:25:51.546Z,72.30
2022-12-25T18:30:54.916Z,72.40
2022-12-25T18:35:59.926Z,72.50
2022-12-25T18:41:08.088Z,72.50
2022-12-25T18:46:11.819Z,72.40
2022-12-25T18:51:15.694Z,72.50
2022-12-25T18:56:20.939Z,72.40
2022-12-25T19:01:26.305Z,72.50
2022-12-25T19:06:33.188Z,72.60
2022-12-25T19:11:44.008Z,72.70
2022-12-25T19:16:50.399Z,72.70
2022-12-25T19:21:54.148Z,72.80
2022-12-25T19:26:58.872Z,72.80
2022-12-25T19:32:02.320Z,72.80
2022-12-25T19:37:05.992Z,72.80
2022-12-25T19:42:10.731Z,72.80
2022-12-25T19:47:14.173Z,72.80
2022-12-25T19:52:17.581Z,72.80
2022-12-25T19:57:22.340Z,72.90
2022-12-25T20:02:25.886Z,72.90
2022-12-25T20:07:29.400Z,73.00
2022-12-25T20:12:34.161Z,72.90
2022-12-25T20:17:37.555Z,73.00
2022-12-25T20:22:41.434Z,73.00
2022-12-25T20:27:46.361Z,73.10
2022-12-25T20:32:50.726Z,73.10
2022-12-25T20:37:54.628Z,73.10
2022-12-25T20:42:59.375Z,73.00
2022-12-25T20:48:05.118Z,73.10
2022-12-25T20:53:08.521Z,73.10
2022-12-25T20:58:13.780Z,73.10
2022-12-25T21:03:17.633Z,73.30
2022-12-25T21:08:26.080Z,73.30
2022-12-25T21:13:32.625Z,73.50
2022-12-25T21:18:36.263Z,73.40
2022-12-25T21:23:41.459Z,73.50
2022-12-25T21:28:46.391Z,73.60
2022-12-25T21:33:52.928Z,73.60
2022-12-25T21:38:58.361Z,73.70
2022-12-25T21:44:03.575Z,73.70
2022-12-25T21:49:07.071Z,73.70
2022-12-25T21:54:11.259Z,73.80
2022-12-25T21:59:17.957Z,73.80
2022-12-25T22:04:23.027Z,74.00
2022-12-25T22:09:27.507Z,74.10
2022-12-25T22:14:56.251Z,74.10
2022-12-25T22:20:01.107Z,74.20
2022-12-25T22:25:06.546Z,74.20
2022-12-25T22:30:14.219Z,74.30
2022-12-25T22:35:18.117Z,74.50
2022-12-25T22:40:22.088Z,74.50
2022-12-25T22:45:27.103Z,74.40
2022-12-25T22:50:30.514Z,74.50
2022-12-25T22:55:33.932Z,74.50
2022-12-25T23:00:45.941Z,74.60
2022-12-25T23:05:55.426Z,74.60
2022-12-25T23:11:02.987Z,74.80
2022-12-25T23:16:13.660Z,74.80
2022-12-25T23:21:35.896Z,74.80
2022-12-25T23:26:39.302Z,74.90
2022-12-25T23:31:44.456Z,74.90
2022-12-25T23:36:47.867Z,75.00
2022-12-25T23:41:51.243Z,75.10
2022-12-25T23:46:56.668Z,75.10
2022-12-25T23:52:00.134Z,75.20
2022-12-25T23:57:03.530Z,75.20
